You are not logged in, Click here to log in
Francisco Bangoy International Airport / RPMD Davao City
ICAO: RPMD Country: Davao City
Latitude: 7.12552 Longitude: 125.646
Total Arrivals: 2 Total Departures: 2
Latest Arrival: FS98 (RPLC-RPMD)CHU. CHUHAO Latest Departure: FS00 (RPMD-RCTP)CHU. CHUHAO
Scenery:
METAR : RPMD 080200Z 03009KT 350V050 9999 FEW016 31/24 Q1011 RMK A2985

Francisco Bangoy International Airport